Time;durP1;ratioP1;P1;durP2;ratioP2;P2;SDS_P1;SDS_P2;PMS_P1;PMS_P2;Temp;Humidity;BMP_temperature;BMP_pressure;BME280_temperature;BME280_humidity;BME280_pressure;Samples;Min_cycle;Max_cycle;Signal;HPM_P1;HPM_P2
2022/10/11 00:02:25;;;;;;;4.10;1.60;;;16.50;72.50;;;;;;5085916;28;20499;-58
2022/10/11 00:04:50;;;;;;;3.97;1.67;;;16.50;72.60;;;;;;5105240;28;20107;-59
2022/10/11 00:07:17;;;;;;;5.45;2.33;;;16.40;72.60;;;;;;5085521;28;20031;-60
2022/10/11 00:09:43;;;;;;;6.55;1.98;;;16.40;72.80;;;;;;5105315;28;20062;-61
2022/10/11 00:12:11;;;;;;;7.60;2.10;;;16.40;72.90;;;;;;5085212;28;20058;-61
2022/10/11 00:14:37;;;;;;;5.03;1.90;;;16.40;73.00;;;;;;5105188;28;20024;-62
2022/10/11 00:17:03;;;;;;;5.60;1.70;;;16.40;73.00;;;;;;5085438;28;20032;-60
2022/10/11 00:19:29;;;;;;;5.47;2.03;;;16.30;73.10;;;;;;5105992;28;20028;-59
2022/10/11 00:21:54;;;;;;;4.15;1.67;;;16.30;73.20;;;;;;5092045;28;20036;-60
2022/10/11 00:24:20;;;;;;;8.55;1.77;;;16.30;73.20;;;;;;5112999;28;20027;-61
2022/10/11 00:26:46;;;;;;;6.53;2.17;;;16.30;73.30;;;;;;5093853;28;20044;-60
2022/10/11 00:29:12;;;;;;;3.50;1.70;;;16.30;73.30;;;;;;5107426;28;20085;-60
2022/10/11 00:31:38;;;;;;;5.15;2.10;;;16.30;73.30;;;;;;5103057;28;20024;-60
2022/10/11 00:34:05;;;;;;;6.13;1.77;;;16.20;73.40;;;;;;5085708;28;20028;-59
2022/10/11 00:36:31;;;;;;;5.38;1.95;;;16.20;73.40;;;;;;5091612;28;20032;-60
2022/10/11 00:38:57;;;;;;;10.73;2.35;;;16.20;73.50;;;;;;5085487;28;20036;-61
2022/10/11 00:41:23;;;;;;;8.02;2.30;;;16.20;73.60;;;;;;5103579;28;20040;-60
2022/10/11 00:44:24;;;;;;;6.57;2.00;;;16.20;73.70;;;;;;5085756;28;20090;-60
2022/10/11 00:47:06;;;;;;;7.35;1.98;;;16.20;74.50;;;;;;5079182;28;20020;-59
2022/10/11 00:49:37;;;;;;;6.22;1.98;;;16.20;74.30;;;;;;5086870;28;20092;-59
2022/10/11 00:52:10;;;;;;;5.22;2.28;;;16.10;73.70;;;;;;5064258;28;20083;-60
2022/10/11 00:54:40;;;;;;;9.40;2.17;;;16.10;73.80;;;;;;5085329;28;20036;-59
2022/10/11 00:57:10;;;;;;;9.50;2.70;;;16.10;73.80;;;;;;5089531;28;20024;-60
2022/10/11 00:59:40;;;;;;;9.57;2.03;;;16.10;73.80;;;;;;5067468;28;20045;-60
2022/10/11 01:02:08;;;;;;;7.93;2.15;;;16.10;74.00;;;;;;5091520;28;20100;-60
2022/10/11 01:04:36;;;;;;;8.50;2.05;;;16.10;74.00;;;;;;5106069;28;20095;-61
2022/10/11 01:07:02;;;;;;;5.97;2.17;;;16.10;73.90;;;;;;5100391;28;20119;-61
2022/10/11 01:09:29;;;;;;;8.73;2.95;;;16.00;73.90;;;;;;5095882;28;20024;-58
2022/10/11 01:11:58;;;;;;;10.85;2.58;;;16.00;74.10;;;;;;5071452;28;20028;-61
2022/10/11 01:14:42;;;;;;;8.25;2.80;;;16.00;74.20;;;;;;5108374;28;20478;-60
2022/10/11 01:18:00;;;;;;;9.65;2.90;;;16.00;75.00;;;;;;5083865;28;20084;-59
2022/10/11 01:20:52;;;;;;;5.53;2.30;;;16.00;74.80;;;;;;5048957;28;20060;-60
2022/10/11 01:23:21;;;;;;;11.15;2.45;;;15.90;74.50;;;;;;5085858;28;20260;-58
2022/10/11 01:25:46;;;;;;;8.68;2.03;;;15.90;74.00;;;;;;5065115;28;20025;-59
2022/10/11 01:28:41;;;;;;;6.55;1.80;;;15.90;74.20;;;;;;5068494;28;20107;-59
2022/10/11 01:31:25;;;;;;;3.92;2.00;;;15.90;74.80;;;;;;5028501;28;20100;-59
2022/10/11 01:34:01;;;;;;;7.78;1.98;;;15.80;74.70;;;;;;5066035;28;20044;-59
2022/10/11 01:36:44;;;;;;;5.93;1.75;;;15.80;74.20;;;;;;5055070;28;20037;-59
2022/10/11 01:39:27;;;;;;;4.47;2.05;;;15.70;74.30;;;;;;5029104;28;20216;-60
2022/10/11 01:42:15;;;;;;;3.47;1.60;;;15.80;74.30;;;;;;5064632;28;20092;-60
2022/10/11 01:44:44;;;;;;;8.10;2.28;;;15.70;73.80;;;;;;5068886;28;20150;-60
2022/10/11 01:47:10;;;;;;;4.22;1.55;;;15.70;73.70;;;;;;5047718;28;20045;-59
2022/10/11 01:49:35;;;;;;;8.30;1.67;;;15.70;73.80;;;;;;5084590;28;20140;-60
2022/10/11 01:52:06;;;;;;;4.93;2.00;;;15.60;73.80;;;;;;5084145;28;20087;-60
2022/10/11 01:55:01;;;;;;;9.90;2.40;;;15.60;74.10;;;;;;5060912;28;20040;-60
2022/10/11 01:57:48;;;;;;;3.70;1.92;;;15.60;74.70;;;;;;5084458;28;20016;-61
2022/10/11 02:00:20;;;;;;;7.15;2.00;;;15.60;74.40;;;;;;5067587;28;20104;-59
2022/10/11 02:03:16;;;;;;;4.40;2.00;;;15.50;73.90;;;;;;5067726;28;20052;-58
2022/10/11 02:05:51;;;;;;;4.57;2.08;;;15.50;74.60;;;;;;5072554;28;20081;-60
2022/10/11 02:08:22;;;;;;;6.57;1.95;;;15.50;74.20;;;;;;5100291;28;20096;-61
2022/10/11 02:10:48;;;;;;;5.82;1.90;;;15.40;74.20;;;;;;5102553;28;20024;-62
2022/10/11 02:13:40;;;;;;;4.10;2.00;;;15.40;73.90;;;;;;5106883;28;20141;-59
2022/10/11 02:16:11;;;;;;;5.65;2.15;;;15.40;74.30;;;;;;5072006;28;20037;-59
2022/10/11 02:18:44;;;;;;;7.22;2.10;;;15.40;74.20;;;;;;5067634;28;20087;-60
2022/10/11 02:21:12;;;;;;;4.00;1.90;;;15.30;74.20;;;;;;5072720;28;20066;-60
2022/10/11 02:23:46;;;;;;;3.20;1.80;;;15.30;74.20;;;;;;5106862;28;20028;-61
2022/10/11 02:26:13;;;;;;;5.82;2.30;;;15.20;74.30;;;;;;5077944;28;20043;-60
2022/10/11 02:28:42;;;;;;;5.30;1.98;;;15.20;74.20;;;;;;5107623;28;20217;-61
2022/10/11 02:31:10;;;;;;;6.28;2.00;;;15.20;74.30;;;;;;5086339;28;20055;-61
2022/10/11 02:33:41;;;;;;;3.65;1.98;;;15.20;74.20;;;;;;5106865;28;20474;-61
2022/10/11 02:36:23;;;;;;;3.90;1.95;;;15.10;74.10;;;;;;5084107;28;20032;-59
2022/10/11 02:38:56;;;;;;;10.02;1.77;;;15.10;74.40;;;;;;5107565;28;20028;-60
2022/10/11 02:41:54;;;;;;;6.38;1.80;;;15.00;74.10;;;;;;5073746;28;20044;-60
2022/10/11 02:44:26;;;;;;;5.63;1.85;;;15.00;74.70;;;;;;5070995;28;20036;-60
2022/10/11 02:46:53;;;;;;;5.53;1.92;;;14.90;73.90;;;;;;5077552;28;20504;-60
2022/10/11 02:49:20;;;;;;;6.65;1.80;;;15.00;73.90;;;;;;5021118;28;20148;-60
2022/10/11 02:51:45;;;;;;;5.15;1.90;;;14.90;73.80;;;;;;5103788;28;20104;-60
2022/10/11 02:54:12;;;;;;;4.93;1.90;;;14.90;73.80;;;;;;5114493;28;20036;-60
2022/10/11 02:56:38;;;;;;;6.25;2.33;;;14.80;73.80;;;;;;5092836;28;20040;-60
2022/10/11 02:59:04;;;;;;;5.70;2.50;;;14.80;74.00;;;;;;5109194;28;20088;-58
2022/10/11 03:01:31;;;;;;;8.57;2.25;;;14.70;74.10;;;;;;5107592;28;20047;-59
2022/10/11 03:03:56;;;;;;;6.70;2.38;;;14.70;74.30;;;;;;5088066;28;20037;-59
2022/10/11 03:06:23;;;;;;;4.70;2.17;;;14.70;74.40;;;;;;5100618;28;20043;-59
2022/10/11 03:08:50;;;;;;;5.45;2.60;;;14.70;74.70;;;;;;5108997;28;20032;-60
2022/10/11 03:11:15;;;;;;;5.35;2.80;;;14.60;74.80;;;;;;5090297;28;20050;-58
2022/10/11 03:13:41;;;;;;;15.10;2.80;;;14.60;74.80;;;;;;5109148;28;20470;-59
2022/10/11 03:16:07;;;;;;;6.03;3.47;;;14.60;75.00;;;;;;5089846;28;20032;-58
2022/10/11 03:18:32;;;;;;;5.93;2.63;;;14.60;75.10;;;;;;5109540;28;20121;-59
2022/10/11 03:20:58;;;;;;;11.00;3.00;;;14.60;75.00;;;;;;5087408;28;20062;-58
2022/10/11 03:23:24;;;;;;;7.43;2.78;;;14.50;75.10;;;;;;5109123;28;20028;-58
2022/10/11 03:25:50;;;;;;;8.13;3.05;;;14.50;75.10;;;;;;5109041;28;20020;-59
2022/10/11 03:28:16;;;;;;;7.93;2.88;;;14.50;75.40;;;;;;5109723;28;20030;-60
2022/10/11 03:30:42;;;;;;;4.80;2.35;;;14.50;74.90;;;;;;5091117;28;20056;-59
2022/10/11 03:33:07;;;;;;;4.50;2.38;;;14.50;75.10;;;;;;5111281;28;20047;-59
2022/10/11 03:35:33;;;;;;;7.00;2.63;;;14.40;75.20;;;;;;5091394;28;20033;-58
2022/10/11 03:37:59;;;;;;;7.40;2.70;;;14.40;75.40;;;;;;5110447;28;20036;-58
2022/10/11 03:40:24;;;;;;;10.50;3.33;;;14.40;75.50;;;;;;5090166;28;20028;-60
2022/10/11 03:42:50;;;;;;;10.27;3.92;;;14.40;75.80;;;;;;5106009;28;20483;-59
2022/10/11 03:45:16;;;;;;;10.02;3.90;;;14.40;76.10;;;;;;5089941;28;20600;-58
2022/10/11 03:47:41;;;;;;;11.98;3.80;;;14.40;76.20;;;;;;5093022;28;20036;-58
2022/10/11 03:50:08;;;;;;;7.93;4.18;;;14.40;76.60;;;;;;5111387;28;20046;-59
2022/10/11 03:52:34;;;;;;;10.70;4.22;;;14.50;77.20;;;;;;5091853;28;20096;-59
2022/10/11 03:55:00;;;;;;;9.85;4.70;;;14.50;77.60;;;;;;5109706;28;20035;-59
2022/10/11 03:57:25;;;;;;;8.25;3.90;;;14.50;77.70;;;;;;5091420;28;20032;-58
2022/10/11 03:59:51;;;;;;;12.40;4.03;;;14.60;77.90;;;;;;5111519;28;20016;-59
2022/10/11 04:02:17;;;;;;;6.63;3.10;;;14.60;78.00;;;;;;5091814;28;20040;-60
2022/10/11 04:04:43;;;;;;;10.68;3.33;;;14.60;77.90;;;;;;5109007;28;20047;-59
2022/10/11 04:07:09;;;;;;;5.85;3.30;;;14.70;77.70;;;;;;5090740;28;20021;-58
2022/10/11 04:09:35;;;;;;;4.43;2.80;;;14.70;77.50;;;;;;5111412;28;20044;-60
2022/10/11 04:12:00;;;;;;;4.22;2.95;;;14.70;77.10;;;;;;5101171;28;20051;-59
2022/10/11 04:14:26;;;;;;;6.07;2.60;;;14.70;76.90;;;;;;5086921;28;20490;-58
2022/10/11 04:16:52;;;;;;;8.93;2.67;;;14.80;76.70;;;;;;5108157;28;20054;-59
2022/10/11 04:19:17;;;;;;;9.15;2.75;;;14.80;76.60;;;;;;5089304;28;20032;-59
2022/10/11 04:21:43;;;;;;;9.60;2.78;;;14.80;76.60;;;;;;5101349;28;20041;-59
2022/10/11 04:24:10;;;;;;;5.20;2.97;;;14.80;76.80;;;;;;5110849;28;20032;-59
2022/10/11 04:26:36;;;;;;;7.00;3.20;;;14.80;76.90;;;;;;5089576;28;20049;-59
2022/10/11 04:29:03;;;;;;;8.57;3.30;;;14.80;77.00;;;;;;5108176;28;20050;-60
2022/10/11 04:31:29;;;;;;;15.23;3.92;;;14.80;77.10;;;;;;5101005;28;20020;-60
2022/10/11 04:33:55;;;;;;;10.45;4.20;;;14.80;77.40;;;;;;5107794;28;20049;-60
2022/10/11 04:36:21;;;;;;;8.05;4.30;;;14.90;77.90;;;;;;5093271;28;20089;-59
2022/10/11 04:38:47;;;;;;;9.38;4.60;;;14.90;78.10;;;;;;5104080;28;20020;-59
2022/10/11 04:41:14;;;;;;;11.15;5.97;;;14.90;78.40;;;;;;5097638;28;20045;-60
2022/10/11 04:43:40;;;;;;;13.05;5.65;;;15.00;78.80;;;;;;5108931;28;20036;-59
2022/10/11 04:46:08;;;;;;;12.25;6.72;;;15.00;78.90;;;;;;5089263;28;20108;-59
2022/10/11 04:48:35;;;;;;;11.98;6.35;;;15.10;79.00;;;;;;5105418;28;20016;-59
2022/10/11 04:51:00;;;;;;;10.85;6.90;;;15.10;78.90;;;;;;5090260;28;20459;-59
2022/10/11 04:53:26;;;;;;;13.65;6.78;;;15.20;78.90;;;;;;5087654;28;20054;-60
2022/10/11 04:56:07;;;;;;;14.52;6.95;;;15.20;78.80;;;;;;5107415;28;20372;-61
2022/10/11 04:58:34;;;;;;;17.40;6.70;;;15.20;79.60;;;;;;5069059;28;20108;-60
2022/10/11 05:01:00;;;;;;;12.18;6.15;;;15.30;78.70;;;;;;5106606;28;20047;-59
2022/10/11 05:03:26;;;;;;;14.70;6.57;;;15.30;78.70;;;;;;5106291;28;20020;-59
2022/10/11 05:05:52;;;;;;;11.43;6.00;;;15.30;78.50;;;;;;5089541;28;20064;-60
2022/10/11 05:08:19;;;;;;;15.98;7.28;;;15.30;78.40;;;;;;5095624;28;20517;-59
2022/10/11 05:10:56;;;;;;;11.35;6.40;;;15.40;78.40;;;;;;5108313;28;20031;-60
2022/10/11 05:13:22;;;;;;;13.60;6.47;;;15.40;79.00;;;;;;5107744;28;20016;-60
2022/10/11 05:15:47;;;;;;;12.43;6.90;;;15.40;78.20;;;;;;5088873;28;20037;-60
2022/10/11 05:18:14;;;;;;;12.30;6.40;;;15.50;78.30;;;;;;5088560;28;20043;-59
2022/10/11 05:20:39;;;;;;;10.73;5.95;;;15.40;78.20;;;;;;5089918;28;20036;-60
2022/10/11 05:23:05;;;;;;;11.35;5.75;;;15.50;78.10;;;;;;5088050;28;20084;-60
2022/10/11 05:25:30;;;;;;;10.77;6.50;;;15.50;78.10;;;;;;5107930;28;20028;-60
2022/10/11 05:27:56;;;;;;;13.80;6.53;;;15.50;77.90;;;;;;5086555;28;20078;-59
2022/10/11 05:30:22;;;;;;;11.18;5.72;;;15.50;78.00;;;;;;5107483;28;20031;-59
2022/10/11 05:32:47;;;;;;;12.43;7.22;;;15.50;78.00;;;;;;5087943;28;20028;-60
2022/10/11 05:35:13;;;;;;;9.25;6.28;;;15.50;78.00;;;;;;5107686;28;20028;-61
2022/10/11 05:37:39;;;;;;;14.38;6.30;;;15.50;77.90;;;;;;5087759;28;20063;-59
2022/10/11 05:40:05;;;;;;;13.77;6.22;;;15.60;77.90;;;;;;5107806;28;20039;-59
2022/10/11 05:42:33;;;;;;;11.65;5.68;;;15.60;77.90;;;;;;5087289;28;20118;-61
2022/10/11 05:44:58;;;;;;;13.20;6.45;;;15.60;77.80;;;;;;5107734;28;20032;-61
2022/10/11 05:47:25;;;;;;;15.80;6.18;;;15.60;77.80;;;;;;5095897;28;20052;-59
2022/10/11 05:49:51;;;;;;;9.65;5.18;;;15.60;77.60;;;;;;5107254;28;20042;-59
2022/10/11 05:52:20;;;;;;;15.23;5.40;;;15.60;77.50;;;;;;5087560;28;20103;-60
2022/10/11 05:54:46;;;;;;;14.18;5.50;;;15.60;77.50;;;;;;5107879;28;20114;-59
2022/10/11 05:57:12;;;;;;;13.25;6.25;;;15.60;77.50;;;;;;5096229;28;20032;-60
2022/10/11 05:59:37;;;;;;;14.98;6.28;;;15.60;77.60;;;;;;5088189;28;20043;-60
2022/10/11 06:02:03;;;;;;;12.98;6.25;;;15.60;77.60;;;;;;5095721;28;20037;-59
2022/10/11 06:04:29;;;;;;;14.88;6.50;;;15.60;77.60;;;;;;5091882;28;20032;-59
2022/10/11 06:06:55;;;;;;;12.75;6.25;;;15.60;77.60;;;;;;5106103;28;20020;-59
2022/10/11 06:09:20;;;;;;;12.07;5.93;;;15.60;77.60;;;;;;5107820;28;20031;-59
2022/10/11 06:11:46;;;;;;;11.63;6.50;;;15.70;77.70;;;;;;5087329;28;20039;-61
2022/10/11 06:14:12;;;;;;;12.63;6.25;;;15.70;77.70;;;;;;5107849;28;20031;-60
2022/10/11 06:16:37;;;;;;;13.68;7.22;;;15.70;77.80;;;;;;5091444;28;20083;-60
2022/10/11 06:19:03;;;;;;;13.65;7.20;;;15.70;77.70;;;;;;5110323;28;20024;-60
2022/10/11 06:21:30;;;;;;;14.38;9.20;;;15.70;77.70;;;;;;5094277;28;20098;-60
2022/10/11 06:23:56;;;;;;;16.50;8.75;;;15.80;77.70;;;;;;5112274;28;20031;-60
2022/10/11 06:26:21;;;;;;;16.10;8.05;;;15.80;78.40;;;;;;5091615;28;20028;-60
2022/10/11 06:28:47;;;;;;;13.40;8.35;;;15.80;77.60;;;;;;5111151;28;20031;-60
2022/10/11 06:31:13;;;;;;;19.88;8.60;;;15.90;77.70;;;;;;5091961;28;20125;-61
2022/10/11 06:33:39;;;;;;;16.75;8.35;;;15.90;77.70;;;;;;5103577;28;20490;-59
2022/10/11 06:36:10;;;;;;;22.75;9.73;;;15.90;77.60;;;;;;5106639;28;20043;-61
2022/10/11 06:38:36;;;;;;;15.80;8.68;;;15.90;77.60;;;;;;5085698;28;20028;-60
2022/10/11 06:41:26;;;;;;;14.38;7.88;;;16.00;77.50;;;;;;5104204;28;20459;-60
2022/10/11 06:43:51;;;;;;;13.65;7.88;;;16.00;77.90;;;;;;5068922;28;20534;-60
2022/10/11 06:46:19;;;;;;;14.80;8.35;;;16.00;77.30;;;;;;5105312;28;20047;-60
2022/10/11 06:48:48;;;;;;;16.75;7.88;;;16.00;77.40;;;;;;5101393;28;20020;-60
2022/10/11 06:51:17;;;;;;;15.60;8.00;;;16.00;77.50;;;;;;5090533;28;20093;-60
2022/10/11 06:53:48;;;;;;;17.38;8.52;;;16.00;77.50;;;;;;5066179;28;20033;-60
2022/10/11 06:56:14;;;;;;;14.57;8.68;;;16.10;77.70;;;;;;5066770;28;20021;-61
2022/10/11 06:58:40;;;;;;;14.32;8.40;;;16.10;77.50;;;;;;5104305;28;20063;-60
2022/10/11 07:01:08;;;;;;;15.95;8.77;;;16.10;77.50;;;;;;5086975;28;20039;-60
2022/10/11 07:03:34;;;;;;;13.50;8.43;;;16.20;77.80;;;;;;5086726;28;20029;-59
2022/10/11 07:06:07;;;;;;;17.13;8.07;;;16.20;77.80;;;;;;5089173;28;20044;-59
2022/10/11 07:08:34;;;;;;;14.93;9.38;;;16.20;77.90;;;;;;5084181;28;20030;-61
2022/10/11 07:11:11;;;;;;;21.58;9.82;;;16.30;77.70;;;;;;5086037;28;20090;-61
2022/10/11 07:13:37;;;;;;;17.40;10.27;;;16.30;77.80;;;;;;5083960;28;20032;-60
2022/10/11 07:16:05;;;;;;;21.65;11.50;;;16.30;77.50;;;;;;5106086;28;20028;-61
2022/10/11 07:18:32;;;;;;;23.67;11.25;;;16.40;77.40;;;;;;5105898;28;20035;-61
2022/10/11 07:21:02;;;;;;;18.35;11.23;;;16.40;77.10;;;;;;5086423;28;20037;-60
2022/10/11 07:23:27;;;;;;;20.88;12.43;;;16.40;77.20;;;;;;5088067;28;20028;-61
2022/10/11 07:25:54;;;;;;;20.58;11.05;;;16.50;77.20;;;;;;5101191;28;20475;-60
2022/10/11 07:28:20;;;;;;;19.73;10.85;;;16.50;77.20;;;;;;5088748;28;20455;-59
2022/10/11 07:30:47;;;;;;;20.17;10.88;;;16.50;77.10;;;;;;5105899;28;20263;-61
2022/10/11 07:33:12;;;;;;;18.98;10.60;;;16.50;77.10;;;;;;5085558;28;20445;-60
2022/10/11 07:35:38;;;;;;;16.13;9.88;;;16.60;77.20;;;;;;5105307;28;20032;-60
2022/10/11 07:38:05;;;;;;;20.73;9.00;;;16.60;77.30;;;;;;5085638;28;20024;-60
2022/10/11 07:40:32;;;;;;;18.67;8.68;;;16.70;77.30;;;;;;5105167;28;20122;-60
2022/10/11 07:42:57;;;;;;;15.85;8.13;;;16.70;77.00;;;;;;5085588;28;20028;-60
2022/10/11 07:45:29;;;;;;;11.65;7.03;;;16.80;77.00;;;;;;5105452;28;20034;-60
2022/10/11 07:47:58;;;;;;;15.60;8.88;;;16.80;77.00;;;;;;5082139;28;20078;-61
2022/10/11 07:50:24;;;;;;;14.40;7.53;;;16.90;77.10;;;;;;5105475;28;20028;-60
2022/10/11 07:52:49;;;;;;;14.27;7.05;;;16.90;76.90;;;;;;5085164;28;20052;-61
2022/10/11 07:55:15;;;;;;;16.77;8.00;;;17.00;76.70;;;;;;5096354;28;20063;-60
2022/10/11 07:57:41;;;;;;;17.05;8.27;;;17.00;76.40;;;;;;5094746;28;20391;-59
2022/10/11 08:00:07;;;;;;;13.48;8.18;;;17.10;76.40;;;;;;5105248;28;20116;-60
2022/10/11 08:02:33;;;;;;;16.15;8.10;;;17.10;76.40;;;;;;5094034;28;20020;-59
2022/10/11 08:04:59;;;;;;;15.80;8.18;;;17.20;76.20;;;;;;5086613;28;20029;-61
2022/10/11 08:07:25;;;;;;;13.60;7.72;;;17.30;76.10;;;;;;5106936;28;20024;-61
2022/10/11 08:09:51;;;;;;;12.20;7.30;;;17.30;75.90;;;;;;5109387;28;20091;-59
2022/10/11 08:12:17;;;;;;;15.98;8.20;;;17.40;75.80;;;;;;5089522;28;20051;-60
2022/10/11 08:14:43;;;;;;;17.80;7.90;;;17.50;75.80;;;;;;5089794;28;20467;-60
2022/10/11 08:17:09;;;;;;;13.68;7.30;;;17.50;75.70;;;;;;5102612;28;20029;-60
2022/10/11 08:19:34;;;;;;;12.80;7.43;;;17.60;75.90;;;;;;5109250;28;20036;-60
2022/10/11 08:22:00;;;;;;;17.33;7.82;;;17.70;75.80;;;;;;5089077;28;20042;-60
2022/10/11 08:24:26;;;;;;;13.77;7.35;;;17.80;75.60;;;;;;5108955;28;20106;-59
2022/10/11 08:26:52;;;;;;;15.02;8.48;;;17.80;75.30;;;;;;5089071;28;20032;-61
2022/10/11 08:29:17;;;;;;;14.57;8.00;;;17.80;75.10;;;;;;5103159;28;20340;-60
2022/10/11 08:31:43;;;;;;;15.35;7.53;;;17.90;75.10;;;;;;5106815;28;20085;-60
2022/10/11 08:34:10;;;;;;;18.25;7.90;;;17.90;74.70;;;;;;5089376;28;20135;-62
2022/10/11 08:36:36;;;;;;;20.60;8.90;;;17.90;74.30;;;;;;5089315;28;20099;-59
2022/10/11 08:39:03;;;;;;;15.73;8.52;;;18.00;74.00;;;;;;5107713;28;20024;-60
2022/10/11 08:41:29;;;;;;;22.10;8.75;;;18.00;73.90;;;;;;5089448;28;20529;-59
2022/10/11 08:44:10;;;;;;;15.40;8.13;;;18.00;73.80;;;;;;5107892;28;20052;-61
2022/10/11 08:46:40;;;;;;;14.57;7.57;;;18.00;73.50;;;;;;5089620;28;20094;-61
2022/10/11 08:49:08;;;;;;;21.17;8.05;;;18.00;73.40;;;;;;5100669;28;20411;-60
2022/10/11 08:51:51;;;;;;;13.70;8.45;;;17.90;73.20;;;;;;5103629;28;20037;-61
2022/10/11 08:54:30;;;;;;;17.10;8.95;;;17.90;73.20;;;;;;5073674;28;20028;-59
2022/10/11 08:56:55;;;;;;;16.05;8.85;;;17.90;73.20;;;;;;5071457;28;20029;-59
2022/10/11 08:59:40;;;;;;;14.52;8.73;;;17.90;73.20;;;;;;5108279;28;20039;-60
2022/10/11 09:02:30;;;;;;;18.33;8.20;;;17.90;73.30;;;;;;5075910;28;20032;-60
2022/10/11 09:04:57;;;;;;;18.02;8.05;;;18.00;74.00;;;;;;5068691;28;20029;-62
2022/10/11 09:07:44;;;;;;;24.35;9.02;;;18.00;73.30;;;;;;5093359;28;20032;-60
2022/10/11 09:10:44;;;;;;;22.90;8.98;;;18.00;73.00;;;;;;5108337;28;20039;-60
2022/10/11 09:13:33;;;;;;;18.23;8.35;;;18.10;72.80;;;;;;5071585;28;20036;-60
2022/10/11 09:16:22;;;;;;;18.27;9.45;;;18.20;72.80;;;;;;5108894;28;20403;-59
2022/10/11 09:18:53;;;;;;;16.52;9.02;;;18.30;72.60;;;;;;5084783;28;20051;-59
2022/10/11 09:21:24;;;;;;;23.02;8.88;;;18.30;72.70;;;;;;5108532;28;20036;-60
2022/10/11 09:24:02;;;;;;;14.55;8.77;;;18.30;72.50;;;;;;5084343;28;20063;-60
2022/10/11 09:26:35;;;;;;;18.35;8.55;;;18.40;72.30;;;;;;5108169;28;20631;-59
2022/10/11 09:29:10;;;;;;;18.30;8.73;;;18.40;72.30;;;;;;5085755;28;20467;-61
2022/10/11 09:31:36;;;;;;;12.32;7.88;;;18.50;72.30;;;;;;5108336;28;20024;-60
2022/10/11 09:34:13;;;;;;;15.00;8.30;;;18.50;72.00;;;;;;5087842;28;20066;-59
2022/10/11 09:36:48;;;;;;;13.50;7.88;;;18.60;71.60;;;;;;5104832;28;20035;-59
2022/10/11 09:39:34;;;;;;;19.83;8.30;;;18.60;71.10;;;;;;5085699;28;20032;-59
2022/10/11 09:42:07;;;;;;;19.55;7.32;;;18.60;70.40;;;;;;5094307;28;20032;-60
2022/10/11 09:44:59;;;;;;;17.20;6.90;;;18.60;70.60;;;;;;5108210;28;20095;-60
2022/10/11 09:47:27;;;;;;;14.88;6.75;;;18.60;69.90;;;;;;5080268;28;20036;-59
2022/10/11 09:50:12;;;;;;;14.63;7.13;;;18.60;70.50;;;;;;4994206;28;20040;-59
2022/10/11 09:52:58;;;;;;;11.25;6.25;;;18.60;69.80;;;;;;5073260;28;20053;-61
2022/10/11 09:55:49;;;;;;;14.80;7.55;;;18.60;69.90;;;;;;5088006;28;20035;-60
2022/10/11 09:58:27;;;;;;;19.63;6.30;;;18.60;69.70;;;;;;5088865;28;20102;-61
2022/10/11 10:01:01;;;;;;;15.05;5.88;;;18.60;70.00;;;;;;5067667;28;20052;-59
2022/10/11 10:03:30;;;;;;;13.55;6.75;;;18.60;70.10;;;;;;5085414;28;20087;-62
2022/10/11 10:06:21;;;;;;;14.10;5.82;;;18.50;70.20;;;;;;5107503;28;20042;-61
2022/10/11 10:08:47;;;;;;;18.85;6.90;;;18.60;70.10;;;;;;5082002;28;20036;-61
2022/10/11 10:11:14;;;;;;;14.27;5.97;;;18.60;70.40;;;;;;5105609;28;20032;-62
2022/10/11 10:13:50;;;;;;;11.82;5.68;;;18.60;70.50;;;;;;5086591;28;20082;-61
2022/10/11 10:16:24;;;;;;;11.05;6.00;;;18.60;70.10;;;;;;5107268;28;20058;-61
2022/10/11 10:18:54;;;;;;;17.90;6.70;;;18.60;69.60;;;;;;5086572;28;20082;-60
2022/10/11 10:21:28;;;;;;;15.90;7.00;;;18.60;69.60;;;;;;5105323;28;20111;-61
2022/10/11 10:23:55;;;;;;;13.48;6.90;;;18.60;69.50;;;;;;5082027;28;20036;-61
2022/10/11 10:26:24;;;;;;;15.20;7.38;;;18.60;69.60;;;;;;5106979;28;20031;-60
2022/10/11 10:28:58;;;;;;;13.52;7.60;;;18.60;69.50;;;;;;5085284;28;20032;-61
2022/10/11 10:31:34;;;;;;;10.18;6.88;;;18.60;69.90;;;;;;5067467;28;20033;-60
2022/10/11 10:34:01;;;;;;;16.88;7.82;;;18.60;69.20;;;;;;5082236;28;20059;-60
2022/10/11 10:36:35;;;;;;;16.17;6.90;;;18.60;69.10;;;;;;5106637;28;20046;-61
2022/10/11 10:39:07;;;;;;;;;;;18.60;69.00;;;;;;5086501;28;20121;-60
2022/10/11 10:41:32;;;;;;;12.57;6.35;;;18.60;69.20;;;;;;5106029;28;19951;-61
2022/10/11 10:43:59;;;;;;;22.50;6.57;;;18.60;69.30;;;;;;5086474;28;20029;-59
2022/10/11 10:46:45;;;;;;;17.50;6.65;;;18.50;69.30;;;;;;5106329;28;20051;-60
2022/10/11 10:49:52;;;;;;;16.90;6.97;;;18.50;69.30;;;;;;5090840;28;20047;-61
2022/10/11 10:52:39;;;;;;;11.70;7.47;;;18.50;69.30;;;;;;5123143;27;20535;-61
2022/10/11 10:55:20;;;;;;;12.20;6.30;;;18.40;69.40;;;;;;5103797;28;20036;-60
2022/10/11 10:58:09;;;;;;;15.40;6.45;;;18.40;69.40;;;;;;5069701;28;20430;-61
2022/10/11 11:00:57;;;;;;;14.43;6.80;;;18.40;69.40;;;;;;5083214;28;20060;-60
2022/10/11 11:03:29;;;;;;;14.38;6.32;;;18.40;69.40;;;;;;5082402;28;20067;-60
2022/10/11 11:06:01;;;;;;;16.85;6.90;;;18.40;69.80;;;;;;5084739;28;20100;-61
2022/10/11 11:08:45;;;;;;;12.35;5.88;;;18.40;69.60;;;;;;5092840;28;20043;-60
2022/10/11 11:11:29;;;;;;;19.15;6.60;;;18.40;69.80;;;;;;5083129;28;20079;-62
2022/10/11 11:14:17;;;;;;;17.33;6.17;;;18.40;69.80;;;;;;5077841;28;20028;-60
2022/10/11 11:16:57;;;;;;;13.23;5.65;;;18.40;69.80;;;;;;5074622;28;20060;-60
2022/10/11 11:19:44;;;;;;;11.93;6.32;;;18.40;69.60;;;;;;5118530;28;20023;-60
2022/10/11 11:22:32;;;;;;;13.57;5.75;;;18.40;69.20;;;;;;5082879;28;20027;-61
2022/10/11 11:25:03;;;;;;;16.20;6.10;;;18.50;69.30;;;;;;5102204;28;20035;-60
2022/10/11 11:27:56;;;;;;;14.93;6.03;;;18.50;69.50;;;;;;5083679;28;20028;-60
2022/10/11 11:30:47;;;;;;;14.55;6.82;;;18.50;69.00;;;;;;5082537;28;20404;-61
2022/10/11 11:33:23;;;;;;;11.13;6.22;;;18.50;68.90;;;;;;5088894;28;20044;-60
2022/10/11 11:35:55;;;;;;;14.38;5.80;;;18.50;69.30;;;;;;5082341;28;20369;-60
2022/10/11 11:38:37;;;;;;;14.07;6.35;;;18.60;69.30;;;;;;5110252;28;20031;-62
2022/10/11 11:41:09;;;;;;;19.63;6.20;;;18.60;69.00;;;;;;5090504;28;20099;-61
2022/10/11 11:43:38;;;;;;;12.35;6.45;;;18.60;68.80;;;;;;5092252;28;20035;-61
2022/10/11 11:46:16;;;;;;;12.10;6.38;;;18.70;68.40;;;;;;5102181;28;20058;-61
2022/10/11 11:48:43;;;;;;;11.35;5.85;;;18.70;68.50;;;;;;5092095;28;20058;-60
2022/10/11 11:51:16;;;;;;;17.05;5.95;;;18.70;68.50;;;;;;5102153;28;20066;-61
2022/10/11 11:54:10;;;;;;;13.35;5.88;;;18.70;68.30;;;;;;5093059;28;20031;-61
2022/10/11 11:56:51;;;;;;;17.10;5.78;;;18.80;68.50;;;;;;5082003;28;20165;-61
2022/10/11 11:59:25;;;;;;;14.70;5.97;;;18.80;68.00;;;;;;5111735;28;20029;-61
2022/10/11 12:02:02;;;;;;;12.75;5.43;;;18.90;68.40;;;;;;5079317;28;20021;-60
2022/10/11 12:04:36;;;;;;;12.57;5.47;;;18.90;67.60;;;;;;5087219;28;20041;-60
2022/10/11 12:07:09;;;;;;;12.82;5.65;;;18.90;67.70;;;;;;5068397;28;20111;-61
2022/10/11 12:09:37;;;;;;;9.25;5.15;;;19.00;67.60;;;;;;5087650;28;20025;-61
2022/10/11 12:12:08;;;;;;;13.50;5.63;;;19.00;67.70;;;;;;5088271;28;20040;-62
2022/10/11 12:14:35;;;;;;;17.98;5.57;;;19.00;67.60;;;;;;5084962;28;20048;-61
2022/10/11 12:17:21;;;;;;;9.25;4.63;;;19.10;67.80;;;;;;5088145;28;20017;-63
2022/10/11 12:20:11;;;;;;;25.17;6.38;;;19.10;67.40;;;;;;5107240;28;20065;-62
2022/10/11 12:22:48;;;;;;;20.40;5.72;;;19.20;67.30;;;;;;5069028;28;20116;-62
2022/10/11 12:25:14;;;;;;;15.90;5.53;;;19.20;67.60;;;;;;5088433;28;20028;-62
2022/10/11 12:27:45;;;;;;;11.93;5.35;;;19.30;67.50;;;;;;5086828;28;20038;-61
2022/10/11 12:30:54;;;;;;;17.35;4.80;;;19.30;67.20;;;;;;5087946;28;20029;-61
2022/10/11 12:33:24;;;;;;;12.65;4.80;;;19.30;67.00;;;;;;5056392;28;20071;-60
2022/10/11 12:35:52;;;;;;;13.20;4.63;;;19.40;67.00;;;;;;5087800;28;20032;-61
2022/10/11 12:38:33;;;;;;;8.10;4.93;;;19.30;66.80;;;;;;5086852;28;20028;-61
2022/10/11 12:41:07;;;;;;;12.65;5.65;;;19.30;66.30;;;;;;5087828;28;20049;-61
2022/10/11 12:44:07;;;;;;;16.20;5.65;;;19.30;66.40;;;;;;5086655;28;20041;-61
2022/10/11 12:46:39;;;;;;;15.23;4.95;;;19.30;66.30;;;;;;5067625;28;20174;-61
2022/10/11 12:49:28;;;;;;;17.17;6.75;;;19.20;66.60;;;;;;5026203;28;20024;-61
2022/10/11 12:52:01;;;;;;;14.93;4.78;;;19.20;66.20;;;;;;5087302;28;20055;-63
2022/10/11 12:55:13;;;;;;;20.90;4.82;;;19.20;66.20;;;;;;5082717;28;20056;-63
2022/10/11 12:57:58;;;;;;;12.25;4.72;;;19.20;65.40;;;;;;4985301;28;20031;-60
2022/10/11 13:00:33;;;;;;;9.23;4.47;;;19.10;66.20;;;;;;4986171;28;20034;-61
2022/10/11 13:03:04;;;;;;;10.05;5.50;;;19.10;66.40;;;;;;4985158;28;20038;-61
2022/10/11 13:05:44;;;;;;;13.55;5.18;;;19.10;65.90;;;;;;4986311;28;20046;-63